Аэропорт
Иркутск (UIII)

 UIII / IKT
ЗЦ Новосибирск
Иркутск (UIII)
Иркутск (UIII)
 52.26800, 104.38900  / 1675 ft

 UIII 140200Z 1403/1503 VRB01MPS 3100 -SN BR BKN004 TEMPO 1403/1406 2200 -SN FU BECMG 1406/1408 FU BKN011
UIII (AIP 1605), UIII (DATA-TEXTS-TABLES)
показать схемы
Название сценария Тип сценария Flight Simulator 9 Flight Simulator X Prepar3D v2 Prepar3D v3 Prepar3D v4 xPlane
Сценарий Иркутска 2011 бесплатный
UPDATE для "Сценарий Иркутска 2011" (исправл. VOR) бесплатный

 

 

Аэропорт Иркутск — международный аэропорт федерального значения Восточной Сибири, расположенный в 7 километрах Юго-Восточнее центра города Иркутска (фактически находится в черте города). Город Иркутск расположен на берегах реки Ангара, в 66 километрах от самого глубокого озера на планете - озера Байкал.

 

Характеристика взлетно-посадочной полосы и оборудования

ВПП МПУ Размеры (м.) Превышение (м.) Освещение ДПРМ БПРМ ИЛС
12 117° 3565х45 480,7 ОВИ-1 (ICAO CAT. I) 514 (CN) 545 (C)
111.300
30 297° 3565х45 514,4 ОВИ-1 (ICAO CAT. I) 514 (IR) 545 (I) 110.300

 

Средства связи ОВД

Позиция Обозначение Позывной (РУС) Позывной (ENG) Частота
Контроль UIII_CTR Иркутск-Контроль Irkutsk-Control 133.400
Подход UIII_APP Иркутск-Подход Irkutsk-Approach 125.200
Круг UIII_R_APP Иркутск-Круг Irkutsk-Radar 119.300
Вышка UIII_TWR Иркутск-Вышка Irkutsk-Tower 118.100
Руление UIII_GND Иркутск-Руление Irkutsk-Taxiing 121.700

 



2018 © VATRUS division